Jos Yakubu Gowon Airport

Current Flights

Departures
Number Departure To Airline
 W3663 14:10  Lagos  Arik Air
Arrivals
Number Arrival From Airline
 W3662 13:35  Lagos  Arik Air
 W3662 13:40  Lagos  Arik Air
Info
Name: Jos Yakubu Gowon Airport
Identifier:  JOS/DNJO
Local Time:  20. May 19:25
City
Flights per Day
1 flights
Distance: 586km (364mi)
Punctuality
84% (0 flights per day delayed)
Delay Average: 129 minutes
Current Weather
 23 C (Humidity: 83%)
  14kt (25km/h / 16mph) from 290°
  Scattered clouds at 700 feet (213 meter)
  9km (6 mi.)
 METAR DNJO 200800Z 29014KT 9999 SCT007 23/20 Q1020

Current Delays

Departures
N/A
Arrivals
N/A

Destinations

Top Destinations
Airport Flights
per week
Seats
per week
  Lagos (LOS) 7 1,022 1 146
  Kaduna (KAD) <1 210 0 30

Airlines & Planes

Top Airlines
Airline Flights
per Day
Seats
per Day
  Arik Air 1 176
  Allied Air <1 -
Top Plane Types
Manufacturer Model Flights Seats
Boeing B737-700 1.4/day 176/day 176.93333333333334
Boeing B737-400 0.0/day - 0